Leimert Park, California
Current Conditions -  °F | °C
As of 1:47 PM on Saturday 25 Oct 2014 (Local Time) from KCQT Reporting Station
Scattered Clouds Scattered Clouds  
Wind Chill: 78°   Ceiling: Unl
Heat Index: 79°   Visibility: 10mi
Dew Point: 53°   Wind: 0mph
Humidity: 42%   Direction: NA
Pressure: 30.01"   Gusts: NA
Location:  34.0092°N, 118.347°W
Report Text: KCQT 252047Z AUTO 00000KT 10SM SCT100 26/12 A3001 RMK AO2 SLP160 T02560117 58012
Loading
Personal Weather Stations






























Interactive Weather Map
Tropical Storm Tracking
New forecast layout! Learn more

10-Day Weather Forecast

Advertisements
Track Severe Weather on mobile